sensor_id;sensor_type;location;lat;lon;timestamp;temperature;humidity
60353;DHT22;46196;52.970;6.954;2024-02-26T00:00:29;4.30;99.90
60353;DHT22;46196;52.970;6.954;2024-02-26T00:02:56;4.30;99.90
60353;DHT22;46196;52.970;6.954;2024-02-26T00:05:22;4.30;99.90
60353;DHT22;46196;52.970;6.954;2024-02-26T00:07:47;4.40;99.90
60353;DHT22;46196;52.970;6.954;2024-02-26T00:10:14;4.30;99.90
60353;DHT22;46196;52.970;6.954;2024-02-26T00:12:40;4.40;99.90
60353;DHT22;46196;52.970;6.954;2024-02-26T00:15:09;4.40;99.90
60353;DHT22;46196;52.970;6.954;2024-02-26T00:17:35;4.50;99.90
60353;DHT22;46196;52.970;6.954;2024-02-26T00:20:02;4.50;99.90
60353;DHT22;46196;52.970;6.954;2024-02-26T00:22:31;4.40;99.90
60353;DHT22;46196;52.970;6.954;2024-02-26T00:24:56;4.40;99.90
60353;DHT22;46196;52.970;6.954;2024-02-26T00:27:22;4.40;99.90
60353;DHT22;46196;52.970;6.954;2024-02-26T00:29:48;4.40;99.90
60353;DHT22;46196;52.970;6.954;2024-02-26T00:32:14;4.40;99.90
60353;DHT22;46196;52.970;6.954;2024-02-26T00:34:39;4.40;99.90
60353;DHT22;46196;52.970;6.954;2024-02-26T00:37:05;4.40;99.90
60353;DHT22;46196;52.970;6.954;2024-02-26T00:39:31;4.30;99.90
60353;DHT22;46196;52.970;6.954;2024-02-26T00:41:56;4.30;99.90
60353;DHT22;46196;52.970;6.954;2024-02-26T00:44:22;4.30;99.90
60353;DHT22;46196;52.970;6.954;2024-02-26T00:46:48;4.20;99.90
60353;DHT22;46196;52.970;6.954;2024-02-26T00:49:13;4.20;99.90
60353;DHT22;46196;52.970;6.954;2024-02-26T00:51:39;4.20;99.90
60353;DHT22;46196;52.970;6.954;2024-02-26T00:54:05;4.20;99.90
60353;DHT22;46196;52.970;6.954;2024-02-26T00:56:30;4.10;99.90
60353;DHT22;46196;52.970;6.954;2024-02-26T00:58:56;4.10;99.90
60353;DHT22;46196;52.970;6.954;2024-02-26T01:01:21;4.10;99.90
60353;DHT22;46196;52.970;6.954;2024-02-26T01:03:47;4.10;99.90
60353;DHT22;46196;52.970;6.954;2024-02-26T01:06:13;4.10;99.90
60353;DHT22;46196;52.970;6.954;2024-02-26T01:08:38;4.10;99.90
60353;DHT22;46196;52.970;6.954;2024-02-26T01:11:04;4.00;99.90
60353;DHT22;46196;52.970;6.954;2024-02-26T01:13:30;4.00;99.90
60353;DHT22;46196;52.970;6.954;2024-02-26T01:15:55;3.90;99.90
60353;DHT22;46196;52.970;6.954;2024-02-26T01:18:21;3.90;99.90
60353;DHT22;46196;52.970;6.954;2024-02-26T01:20:47;3.90;99.90
60353;DHT22;46196;52.970;6.954;2024-02-26T01:23:13;3.90;99.90
60353;DHT22;46196;52.970;6.954;2024-02-26T01:25:39;3.90;99.90
60353;DHT22;46196;52.970;6.954;2024-02-26T01:28:05;3.80;99.90
60353;DHT22;46196;52.970;6.954;2024-02-26T01:30:31;3.80;99.90
60353;DHT22;46196;52.970;6.954;2024-02-26T01:32:57;3.80;99.90
60353;DHT22;46196;52.970;6.954;2024-02-26T01:35:22;3.80;99.90
60353;DHT22;46196;52.970;6.954;2024-02-26T01:37:48;3.80;99.90
60353;DHT22;46196;52.970;6.954;2024-02-26T01:40:14;3.80;99.90
60353;DHT22;46196;52.970;6.954;2024-02-26T01:42:45;3.70;99.90
60353;DHT22;46196;52.970;6.954;2024-02-26T01:45:14;3.60;99.90
60353;DHT22;46196;52.970;6.954;2024-02-26T01:47:41;3.70;99.90
60353;DHT22;46196;52.970;6.954;2024-02-26T01:50:08;3.70;99.90
60353;DHT22;46196;52.970;6.954;2024-02-26T01:52:34;3.70;99.90
60353;DHT22;46196;52.970;6.954;2024-02-26T01:55:01;3.70;99.90
60353;DHT22;46196;52.970;6.954;2024-02-26T01:57:28;3.70;99.90
60353;DHT22;46196;52.970;6.954;2024-02-26T01:59:55;3.70;99.90
60353;DHT22;46196;52.970;6.954;2024-02-26T02:02:21;3.60;99.90
60353;DHT22;46196;52.970;6.954;2024-02-26T02:04:46;3.70;99.90
60353;DHT22;46196;52.970;6.954;2024-02-26T02:07:12;3.70;99.90
60353;DHT22;46196;52.970;6.954;2024-02-26T02:09:38;3.70;99.90
60353;DHT22;46196;52.970;6.954;2024-02-26T02:12:04;3.70;99.90
60353;DHT22;46196;52.970;6.954;2024-02-26T02:14:31;3.70;99.90
60353;DHT22;46196;52.970;6.954;2024-02-26T02:16:57;3.70;99.90
60353;DHT22;46196;52.970;6.954;2024-02-26T02:19:22;3.70;99.90
60353;DHT22;46196;52.970;6.954;2024-02-26T02:21:48;3.60;99.90
60353;DHT22;46196;52.970;6.954;2024-02-26T02:24:14;3.60;99.90
60353;DHT22;46196;52.970;6.954;2024-02-26T02:26:39;3.70;99.90
60353;DHT22;46196;52.970;6.954;2024-02-26T02:29:06;3.70;99.90
60353;DHT22;46196;52.970;6.954;2024-02-26T02:31:32;3.70;99.90
60353;DHT22;46196;52.970;6.954;2024-02-26T02:33:58;3.70;99.90
60353;DHT22;46196;52.970;6.954;2024-02-26T02:36:25;3.60;99.90
60353;DHT22;46196;52.970;6.954;2024-02-26T02:38:50;3.60;99.90
60353;DHT22;46196;52.970;6.954;2024-02-26T02:41:17;3.70;99.90
60353;DHT22;46196;52.970;6.954;2024-02-26T02:43:42;3.70;99.90
60353;DHT22;46196;52.970;6.954;2024-02-26T02:46:08;3.60;99.90
60353;DHT22;46196;52.970;6.954;2024-02-26T02:48:34;3.70;99.90
60353;DHT22;46196;52.970;6.954;2024-02-26T02:50:59;3.60;99.90
60353;DHT22;46196;52.970;6.954;2024-02-26T02:53:25;3.70;99.90
60353;DHT22;46196;52.970;6.954;2024-02-26T02:55:50;3.60;99.90
60353;DHT22;46196;52.970;6.954;2024-02-26T02:58:16;3.70;99.90
60353;DHT22;46196;52.970;6.954;2024-02-26T03:00:42;3.60;99.90
60353;DHT22;46196;52.970;6.954;2024-02-26T03:03:07;3.60;99.90
60353;DHT22;46196;52.970;6.954;2024-02-26T03:05:33;3.60;99.90
60353;DHT22;46196;52.970;6.954;2024-02-26T03:07:59;3.60;99.90
60353;DHT22;46196;52.970;6.954;2024-02-26T03:10:25;3.60;99.90
60353;DHT22;46196;52.970;6.954;2024-02-26T03:12:50;3.70;99.90
60353;DHT22;46196;52.970;6.954;2024-02-26T03:15:16;3.70;99.90
60353;DHT22;46196;52.970;6.954;2024-02-26T03:17:42;3.70;99.90
60353;DHT22;46196;52.970;6.954;2024-02-26T03:20:08;3.80;99.90
60353;DHT22;46196;52.970;6.954;2024-02-26T03:22:35;3.80;99.90
60353;DHT22;46196;52.970;6.954;2024-02-26T03:25:01;3.80;99.90
60353;DHT22;46196;52.970;6.954;2024-02-26T03:27:27;3.90;99.90
60353;DHT22;46196;52.970;6.954;2024-02-26T03:29:52;3.90;99.90
60353;DHT22;46196;52.970;6.954;2024-02-26T03:32:18;4.00;99.90
60353;DHT22;46196;52.970;6.954;2024-02-26T03:34:44;4.00;99.90
60353;DHT22;46196;52.970;6.954;2024-02-26T03:37:09;4.00;99.90
60353;DHT22;46196;52.970;6.954;2024-02-26T03:39:36;4.10;99.90
60353;DHT22;46196;52.970;6.954;2024-02-26T03:42:03;4.10;99.90
60353;DHT22;46196;52.970;6.954;2024-02-26T03:44:29;4.10;99.90
60353;DHT22;46196;52.970;6.954;2024-02-26T03:46:54;4.20;99.90
60353;DHT22;46196;52.970;6.954;2024-02-26T03:49:21;4.20;99.90
60353;DHT22;46196;52.970;6.954;2024-02-26T03:51:48;4.20;99.90
60353;DHT22;46196;52.970;6.954;2024-02-26T03:54:13;4.20;99.90
60353;DHT22;46196;52.970;6.954;2024-02-26T03:56:39;4.20;99.90
60353;DHT22;46196;52.970;6.954;2024-02-26T03:59:05;4.20;99.90
60353;DHT22;46196;52.970;6.954;2024-02-26T04:01:30;4.20;99.90
60353;DHT22;46196;52.970;6.954;2024-02-26T04:03:56;4.20;99.90
60353;DHT22;46196;52.970;6.954;2024-02-26T04:06:22;4.20;99.90
60353;DHT22;46196;52.970;6.954;2024-02-26T04:08:48;4.30;99.90
60353;DHT22;46196;52.970;6.954;2024-02-26T04:11:14;4.20;99.90
60353;DHT22;46196;52.970;6.954;2024-02-26T04:13:46;4.20;99.90
60353;DHT22;46196;52.970;6.954;2024-02-26T04:16:14;4.20;99.90
60353;DHT22;46196;52.970;6.954;2024-02-26T04:18:40;4.30;99.90
60353;DHT22;46196;52.970;6.954;2024-02-26T04:21:06;4.20;99.90
60353;DHT22;46196;52.970;6.954;2024-02-26T04:23:32;4.20;99.90
60353;DHT22;46196;52.970;6.954;2024-02-26T04:25:59;4.20;99.90
60353;DHT22;46196;52.970;6.954;2024-02-26T04:28:24;4.20;99.90
60353;DHT22;46196;52.970;6.954;2024-02-26T04:30:55;4.20;99.90
60353;DHT22;46196;52.970;6.954;2024-02-26T04:33:21;4.20;99.90
60353;DHT22;46196;52.970;6.954;2024-02-26T04:35:47;4.20;99.90
60353;DHT22;46196;52.970;6.954;2024-02-26T04:38:12;4.10;99.90
60353;DHT22;46196;52.970;6.954;2024-02-26T04:40:38;4.10;99.90
60353;DHT22;46196;52.970;6.954;2024-02-26T04:43:04;4.00;99.90
60353;DHT22;46196;52.970;6.954;2024-02-26T04:45:29;4.00;99.90
60353;DHT22;46196;52.970;6.954;2024-02-26T04:47:55;3.90;99.90
60353;DHT22;46196;52.970;6.954;2024-02-26T04:50:21;4.00;99.90
60353;DHT22;46196;52.970;6.954;2024-02-26T04:52:46;3.90;99.90
60353;DHT22;46196;52.970;6.954;2024-02-26T04:55:12;3.90;99.90
60353;DHT22;46196;52.970;6.954;2024-02-26T04:57:37;3.80;99.90
60353;DHT22;46196;52.970;6.954;2024-02-26T05:00:04;3.80;99.90
60353;DHT22;46196;52.970;6.954;2024-02-26T05:02:30;3.80;99.90
60353;DHT22;46196;52.970;6.954;2024-02-26T05:04:57;3.70;99.90
60353;DHT22;46196;52.970;6.954;2024-02-26T05:07:23;3.70;99.90
60353;DHT22;46196;52.970;6.954;2024-02-26T05:09:49;3.60;99.90
60353;DHT22;46196;52.970;6.954;2024-02-26T05:12:17;3.60;99.90
60353;DHT22;46196;52.970;6.954;2024-02-26T05:14:43;3.60;99.90
60353;DHT22;46196;52.970;6.954;2024-02-26T05:17:08;3.60;99.90
60353;DHT22;46196;52.970;6.954;2024-02-26T05:19:34;3.60;99.90
60353;DHT22;46196;52.970;6.954;2024-02-26T05:22:00;3.50;99.90
60353;DHT22;46196;52.970;6.954;2024-02-26T05:24:26;3.60;99.90
60353;DHT22;46196;52.970;6.954;2024-02-26T05:26:51;3.50;99.90
60353;DHT22;46196;52.970;6.954;2024-02-26T05:29:17;3.50;99.90
60353;DHT22;46196;52.970;6.954;2024-02-26T05:31:43;3.50;99.90
60353;DHT22;46196;52.970;6.954;2024-02-26T05:34:08;3.50;99.90
60353;DHT22;46196;52.970;6.954;2024-02-26T05:36:34;3.50;99.90
60353;DHT22;46196;52.970;6.954;2024-02-26T05:39:00;3.50;99.90
60353;DHT22;46196;52.970;6.954;2024-02-26T05:41:26;3.50;99.90
60353;DHT22;46196;52.970;6.954;2024-02-26T05:43:53;3.50;99.90
60353;DHT22;46196;52.970;6.954;2024-02-26T05:46:19;3.60;99.90
60353;DHT22;46196;52.970;6.954;2024-02-26T05:48:47;3.50;99.90
60353;DHT22;46196;52.970;6.954;2024-02-26T05:51:12;3.50;99.90
60353;DHT22;46196;52.970;6.954;2024-02-26T05:53:38;3.50;99.90
60353;DHT22;46196;52.970;6.954;2024-02-26T05:56:04;3.50;99.90
60353;DHT22;46196;52.970;6.954;2024-02-26T05:58:29;3.50;99.90
60353;DHT22;46196;52.970;6.954;2024-02-26T06:00:55;2.80;99.90
60353;DHT22;46196;52.970;6.954;2024-02-26T06:03:21;3.40;99.90
60353;DHT22;46196;52.970;6.954;2024-02-26T06:05:46;3.50;99.90
60353;DHT22;46196;52.970;6.954;2024-02-26T06:08:12;3.50;99.90
60353;DHT22;46196;52.970;6.954;2024-02-26T06:10:38;3.50;99.90
60353;DHT22;46196;52.970;6.954;2024-02-26T06:13:04;3.70;99.90
60353;DHT22;46196;52.970;6.954;2024-02-26T06:15:30;3.50;99.90
60353;DHT22;46196;52.970;6.954;2024-02-26T06:17:55;3.50;99.90
60353;DHT22;46196;52.970;6.954;2024-02-26T06:20:21;3.50;99.90
60353;DHT22;46196;52.970;6.954;2024-02-26T06:22:47;3.50;99.90
60353;DHT22;46196;52.970;6.954;2024-02-26T06:25:12;3.50;99.90
60353;DHT22;46196;52.970;6.954;2024-02-26T06:27:38;3.50;99.90
60353;DHT22;46196;52.970;6.954;2024-02-26T06:30:04;3.50;99.90
60353;DHT22;46196;52.970;6.954;2024-02-26T06:32:30;3.50;99.90
60353;DHT22;46196;52.970;6.954;2024-02-26T06:34:56;3.60;99.90
60353;DHT22;46196;52.970;6.954;2024-02-26T06:37:22;3.50;99.90
60353;DHT22;46196;52.970;6.954;2024-02-26T06:39:48;3.50;99.90
60353;DHT22;46196;52.970;6.954;2024-02-26T06:42:13;3.50;99.90
60353;DHT22;46196;52.970;6.954;2024-02-26T06:44:39;3.60;99.90
60353;DHT22;46196;52.970;6.954;2024-02-26T06:47:05;3.60;99.90
60353;DHT22;46196;52.970;6.954;2024-02-26T06:49:31;3.60;99.90
60353;DHT22;46196;52.970;6.954;2024-02-26T06:51:57;3.60;99.90
60353;DHT22;46196;52.970;6.954;2024-02-26T06:54:22;3.60;99.90
60353;DHT22;46196;52.970;6.954;2024-02-26T06:56:48;3.60;99.90
60353;DHT22;46196;52.970;6.954;2024-02-26T06:59:14;3.60;99.90
60353;DHT22;46196;52.970;6.954;2024-02-26T07:01:41;3.60;99.90
60353;DHT22;46196;52.970;6.954;2024-02-26T07:04:07;3.60;99.90
60353;DHT22;46196;52.970;6.954;2024-02-26T07:06:33;3.70;99.90
60353;DHT22;46196;52.970;6.954;2024-02-26T07:08:59;3.60;99.90
60353;DHT22;46196;52.970;6.954;2024-02-26T07:11:24;3.70;99.90
60353;DHT22;46196;52.970;6.954;2024-02-26T07:13:50;3.70;99.90
60353;DHT22;46196;52.970;6.954;2024-02-26T07:16:16;3.70;99.90
60353;DHT22;46196;52.970;6.954;2024-02-26T07:18:42;3.70;99.90
60353;DHT22;46196;52.970;6.954;2024-02-26T07:21:09;3.80;99.90
60353;DHT22;46196;52.970;6.954;2024-02-26T07:23:34;3.80;99.90
60353;DHT22;46196;52.970;6.954;2024-02-26T07:26:00;3.80;99.90
60353;DHT22;46196;52.970;6.954;2024-02-26T07:28:26;3.80;99.90
60353;DHT22;46196;52.970;6.954;2024-02-26T07:30:52;3.80;99.90
60353;DHT22;46196;52.970;6.954;2024-02-26T07:33:17;3.80;99.90
60353;DHT22;46196;52.970;6.954;2024-02-26T07:35:43;3.90;99.90
60353;DHT22;46196;52.970;6.954;2024-02-26T07:38:09;3.90;99.90
60353;DHT22;46196;52.970;6.954;2024-02-26T07:40:34;3.90;99.90
60353;DHT22;46196;52.970;6.954;2024-02-26T07:43:00;4.00;99.90
60353;DHT22;46196;52.970;6.954;2024-02-26T07:45:26;4.00;99.90
60353;DHT22;46196;52.970;6.954;2024-02-26T07:47:51;4.00;99.90
60353;DHT22;46196;52.970;6.954;2024-02-26T07:50:18;4.00;99.90
60353;DHT22;46196;52.970;6.954;2024-02-26T07:52:44;4.20;99.90
60353;DHT22;46196;52.970;6.954;2024-02-26T07:55:10;4.10;99.90
60353;DHT22;46196;52.970;6.954;2024-02-26T07:57:36;4.10;99.90
60353;DHT22;46196;52.970;6.954;2024-02-26T08:00:02;4.10;99.90
60353;DHT22;46196;52.970;6.954;2024-02-26T08:02:28;4.10;99.90
60353;DHT22;46196;52.970;6.954;2024-02-26T08:04:54;4.20;99.90
60353;DHT22;46196;52.970;6.954;2024-02-26T08:07:20;4.20;99.90
60353;DHT22;46196;52.970;6.954;2024-02-26T08:09:48;4.20;99.90
60353;DHT22;46196;52.970;6.954;2024-02-26T08:12:14;4.20;99.90
60353;DHT22;46196;52.970;6.954;2024-02-26T08:14:40;4.30;99.90
60353;DHT22;46196;52.970;6.954;2024-02-26T08:17:06;4.30;99.90
60353;DHT22;46196;52.970;6.954;2024-02-26T08:19:31;4.30;99.90
60353;DHT22;46196;52.970;6.954;2024-02-26T08:21:58;4.30;99.90
60353;DHT22;46196;52.970;6.954;2024-02-26T08:24:24;4.30;99.90
60353;DHT22;46196;52.970;6.954;2024-02-26T08:26:49;4.40;99.90
60353;DHT22;46196;52.970;6.954;2024-02-26T08:29:15;4.40;99.90
60353;DHT22;46196;52.970;6.954;2024-02-26T08:31:41;4.50;99.90
60353;DHT22;46196;52.970;6.954;2024-02-26T08:34:06;4.50;99.90
60353;DHT22;46196;52.970;6.954;2024-02-26T08:36:33;4.50;99.90
60353;DHT22;46196;52.970;6.954;2024-02-26T08:38:59;4.50;99.90
60353;DHT22;46196;52.970;6.954;2024-02-26T08:41:25;4.60;99.90
60353;DHT22;46196;52.970;6.954;2024-02-26T08:43:51;4.60;99.90
60353;DHT22;46196;52.970;6.954;2024-02-26T08:46:17;4.60;99.90
60353;DHT22;46196;52.970;6.954;2024-02-26T08:48:42;4.70;99.90
60353;DHT22;46196;52.970;6.954;2024-02-26T08:51:08;4.70;99.90
60353;DHT22;46196;52.970;6.954;2024-02-26T08:53:35;4.70;99.90
60353;DHT22;46196;52.970;6.954;2024-02-26T08:56:01;4.70;99.90
60353;DHT22;46196;52.970;6.954;2024-02-26T08:58:27;4.80;99.90
60353;DHT22;46196;52.970;6.954;2024-02-26T09:00:53;4.80;99.90
60353;DHT22;46196;52.970;6.954;2024-02-26T09:03:19;4.80;99.90
60353;DHT22;46196;52.970;6.954;2024-02-26T09:05:45;4.80;99.90
60353;DHT22;46196;52.970;6.954;2024-02-26T09:08:10;4.80;99.90
60353;DHT22;46196;52.970;6.954;2024-02-26T09:10:36;4.90;99.90
60353;DHT22;46196;52.970;6.954;2024-02-26T09:13:02;4.90;99.90
60353;DHT22;46196;52.970;6.954;2024-02-26T09:15:27;5.00;99.90
60353;DHT22;46196;52.970;6.954;2024-02-26T09:17:53;5.00;99.90
60353;DHT22;46196;52.970;6.954;2024-02-26T09:20:19;5.10;99.90
60353;DHT22;46196;52.970;6.954;2024-02-26T09:22:48;5.10;99.90
60353;DHT22;46196;52.970;6.954;2024-02-26T09:25:14;5.10;99.90
60353;DHT22;46196;52.970;6.954;2024-02-26T09:27:42;4.60;99.90
60353;DHT22;46196;52.970;6.954;2024-02-26T09:30:12;5.20;99.90
60353;DHT22;46196;52.970;6.954;2024-02-26T09:32:38;5.20;99.90
60353;DHT22;46196;52.970;6.954;2024-02-26T09:35:08;5.20;99.90
60353;DHT22;46196;52.970;6.954;2024-02-26T09:37:33;5.20;99.90
60353;DHT22;46196;52.970;6.954;2024-02-26T09:40:00;5.20;99.90
60353;DHT22;46196;52.970;6.954;2024-02-26T09:42:26;5.30;99.90
60353;DHT22;46196;52.970;6.954;2024-02-26T09:44:56;5.30;99.90
60353;DHT22;46196;52.970;6.954;2024-02-26T09:47:26;5.30;99.90
60353;DHT22;46196;52.970;6.954;2024-02-26T09:49:55;5.20;99.90
60353;DHT22;46196;52.970;6.954;2024-02-26T09:52:21;5.20;99.90
60353;DHT22;46196;52.970;6.954;2024-02-26T09:54:49;5.20;99.90
60353;DHT22;46196;52.970;6.954;2024-02-26T09:57:15;5.20;99.90
60353;DHT22;46196;52.970;6.954;2024-02-26T09:59:43;5.30;99.90
60353;DHT22;46196;52.970;6.954;2024-02-26T10:02:13;5.30;99.90
60353;DHT22;46196;52.970;6.954;2024-02-26T10:04:42;5.30;99.90
60353;DHT22;46196;52.970;6.954;2024-02-26T10:07:12;5.40;99.90
60353;DHT22;46196;52.970;6.954;2024-02-26T10:09:38;5.40;99.90
60353;DHT22;46196;52.970;6.954;2024-02-26T10:12:05;5.40;99.90
60353;DHT22;46196;52.970;6.954;2024-02-26T10:14:33;5.40;99.90
60353;DHT22;46196;52.970;6.954;2024-02-26T10:16:59;5.40;99.90
60353;DHT22;46196;52.970;6.954;2024-02-26T10:19:30;5.50;99.90
60353;DHT22;46196;52.970;6.954;2024-02-26T10:22:00;5.50;99.90
60353;DHT22;46196;52.970;6.954;2024-02-26T10:24:27;5.60;99.90
60353;DHT22;46196;52.970;6.954;2024-02-26T10:26:54;5.60;99.90
60353;DHT22;46196;52.970;6.954;2024-02-26T10:29:23;5.60;99.90
60353;DHT22;46196;52.970;6.954;2024-02-26T10:31:51;5.60;99.90
60353;DHT22;46196;52.970;6.954;2024-02-26T10:34:17;5.60;99.90
60353;DHT22;46196;52.970;6.954;2024-02-26T10:36:42;5.60;99.90
60353;DHT22;46196;52.970;6.954;2024-02-26T10:39:11;5.60;99.90
60353;DHT22;46196;52.970;6.954;2024-02-26T10:41:37;5.70;99.90
60353;DHT22;46196;52.970;6.954;2024-02-26T10:44:04;5.70;99.90
60353;DHT22;46196;52.970;6.954;2024-02-26T10:46:29;5.80;99.90
60353;DHT22;46196;52.970;6.954;2024-02-26T10:48:56;5.80;99.90
60353;DHT22;46196;52.970;6.954;2024-02-26T10:51:27;5.80;99.90
60353;DHT22;46196;52.970;6.954;2024-02-26T10:53:55;5.80;99.90
60353;DHT22;46196;52.970;6.954;2024-02-26T10:56:26;5.80;99.90
60353;DHT22;46196;52.970;6.954;2024-02-26T10:58:53;5.80;99.90
60353;DHT22;46196;52.970;6.954;2024-02-26T11:01:19;5.90;99.90
60353;DHT22;46196;52.970;6.954;2024-02-26T11:03:48;5.90;99.90
60353;DHT22;46196;52.970;6.954;2024-02-26T11:06:15;6.00;99.90
60353;DHT22;46196;52.970;6.954;2024-02-26T11:08:42;6.00;99.90
60353;DHT22;46196;52.970;6.954;2024-02-26T11:11:08;6.00;99.90
60353;DHT22;46196;52.970;6.954;2024-02-26T11:13:36;6.10;99.90
60353;DHT22;46196;52.970;6.954;2024-02-26T11:16:05;6.10;99.90
60353;DHT22;46196;52.970;6.954;2024-02-26T11:18:32;6.10;99.90
60353;DHT22;46196;52.970;6.954;2024-02-26T11:20:59;6.20;99.90
60353;DHT22;46196;52.970;6.954;2024-02-26T11:23:26;6.20;99.90
60353;DHT22;46196;52.970;6.954;2024-02-26T11:25:54;6.30;99.90
60353;DHT22;46196;52.970;6.954;2024-02-26T11:28:21;6.30;99.90
60353;DHT22;46196;52.970;6.954;2024-02-26T11:30:49;6.30;99.90
60353;DHT22;46196;52.970;6.954;2024-02-26T11:33:15;6.40;99.90
60353;DHT22;46196;52.970;6.954;2024-02-26T11:35:41;6.50;99.90
60353;DHT22;46196;52.970;6.954;2024-02-26T11:38:07;6.40;99.90
60353;DHT22;46196;52.970;6.954;2024-02-26T11:40:38;6.50;99.90
60353;DHT22;46196;52.970;6.954;2024-02-26T11:43:06;6.50;99.90
60353;DHT22;46196;52.970;6.954;2024-02-26T11:48:21;6.60;99.90
60353;DHT22;46196;52.970;6.954;2024-02-26T11:50:53;6.80;99.90
60353;DHT22;46196;52.970;6.954;2024-02-26T11:53:30;6.80;99.90
60353;DHT22;46196;52.970;6.954;2024-02-26T11:59:11;6.90;99.90
60353;DHT22;46196;52.970;6.954;2024-02-26T12:01:47;7.00;99.90
60353;DHT22;46196;52.970;6.954;2024-02-26T12:04:25;7.00;99.90
60353;DHT22;46196;52.970;6.954;2024-02-26T12:06:54;7.10;99.90
60353;DHT22;46196;52.970;6.954;2024-02-26T12:09:39;7.10;99.90
60353;DHT22;46196;52.970;6.954;2024-02-26T12:12:09;7.10;99.90
60353;DHT22;46196;52.970;6.954;2024-02-26T12:14:53;7.10;99.90
60353;DHT22;46196;52.970;6.954;2024-02-26T12:17:20;7.00;99.90
60353;DHT22;46196;52.970;6.954;2024-02-26T12:19:46;7.00;99.90
60353;DHT22;46196;52.970;6.954;2024-02-26T12:22:15;7.00;99.90
60353;DHT22;46196;52.970;6.954;2024-02-26T12:24:41;7.00;99.90
60353;DHT22;46196;52.970;6.954;2024-02-26T12:27:07;6.90;99.90
60353;DHT22;46196;52.970;6.954;2024-02-26T12:29:33;6.90;99.90
60353;DHT22;46196;52.970;6.954;2024-02-26T12:31:59;6.80;99.90
60353;DHT22;46196;52.970;6.954;2024-02-26T12:34:25;6.90;99.90
60353;DHT22;46196;52.970;6.954;2024-02-26T12:36:51;6.80;99.90
60353;DHT22;46196;52.970;6.954;2024-02-26T12:39:16;6.80;99.90
60353;DHT22;46196;52.970;6.954;2024-02-26T12:41:42;6.80;99.90
60353;DHT22;46196;52.970;6.954;2024-02-26T12:44:18;6.90;99.90
60353;DHT22;46196;52.970;6.954;2024-02-26T12:46:43;6.90;99.90
60353;DHT22;46196;52.970;6.954;2024-02-26T12:49:14;7.10;99.90
60353;DHT22;46196;52.970;6.954;2024-02-26T12:51:41;6.90;99.90
60353;DHT22;46196;52.970;6.954;2024-02-26T12:54:07;6.90;99.90
60353;DHT22;46196;52.970;6.954;2024-02-26T12:56:34;6.90;99.90
60353;DHT22;46196;52.970;6.954;2024-02-26T12:59:02;6.90;99.90
60353;DHT22;46196;52.970;6.954;2024-02-26T13:01:29;6.90;99.90
60353;DHT22;46196;52.970;6.954;2024-02-26T13:03:55;7.00;99.90
60353;DHT22;46196;52.970;6.954;2024-02-26T13:06:21;6.90;99.90
60353;DHT22;46196;52.970;6.954;2024-02-26T13:08:47;6.90;99.90
60353;DHT22;46196;52.970;6.954;2024-02-26T13:11:14;6.90;99.90
60353;DHT22;46196;52.970;6.954;2024-02-26T13:13:39;6.90;99.90
60353;DHT22;46196;52.970;6.954;2024-02-26T13:16:07;6.80;99.90
60353;DHT22;46196;52.970;6.954;2024-02-26T13:18:34;6.80;99.90
60353;DHT22;46196;52.970;6.954;2024-02-26T13:21:14;6.80;99.90
60353;DHT22;46196;52.970;6.954;2024-02-26T13:23:41;6.70;99.90
60353;DHT22;46196;52.970;6.954;2024-02-26T13:26:07;6.70;99.90
60353;DHT22;46196;52.970;6.954;2024-02-26T13:28:34;6.60;99.90
60353;DHT22;46196;52.970;6.954;2024-02-26T13:31:00;6.60;99.90
60353;DHT22;46196;52.970;6.954;2024-02-26T13:33:27;6.60;99.90
60353;DHT22;46196;52.970;6.954;2024-02-26T13:35:55;6.60;99.90
60353;DHT22;46196;52.970;6.954;2024-02-26T13:38:21;6.50;99.90
60353;DHT22;46196;52.970;6.954;2024-02-26T13:40:46;6.40;99.90
60353;DHT22;46196;52.970;6.954;2024-02-26T13:43:12;6.30;99.90
60353;DHT22;46196;52.970;6.954;2024-02-26T13:45:38;6.20;99.90
60353;DHT22;46196;52.970;6.954;2024-02-26T13:48:09;6.30;99.90
60353;DHT22;46196;52.970;6.954;2024-02-26T13:50:40;6.20;99.90
60353;DHT22;46196;52.970;6.954;2024-02-26T13:53:06;6.20;99.90
60353;DHT22;46196;52.970;6.954;2024-02-26T13:55:32;6.10;99.90
60353;DHT22;46196;52.970;6.954;2024-02-26T13:57:58;6.10;99.90
60353;DHT22;46196;52.970;6.954;2024-02-26T14:00:27;6.10;99.90
60353;DHT22;46196;52.970;6.954;2024-02-26T14:02:52;6.10;99.90
60353;DHT22;46196;52.970;6.954;2024-02-26T14:05:18;6.00;99.90
60353;DHT22;46196;52.970;6.954;2024-02-26T14:07:44;6.00;99.90
60353;DHT22;46196;52.970;6.954;2024-02-26T14:10:12;6.00;99.90
60353;DHT22;46196;52.970;6.954;2024-02-26T14:12:39;6.00;99.90
60353;DHT22;46196;52.970;6.954;2024-02-26T14:15:07;6.00;99.90
60353;DHT22;46196;52.970;6.954;2024-02-26T14:17:33;6.00;99.90
60353;DHT22;46196;52.970;6.954;2024-02-26T14:19:58;6.00;99.90
60353;DHT22;46196;52.970;6.954;2024-02-26T14:22:25;6.00;99.90
60353;DHT22;46196;52.970;6.954;2024-02-26T14:24:52;6.00;99.90
60353;DHT22;46196;52.970;6.954;2024-02-26T14:27:18;6.00;99.90
60353;DHT22;46196;52.970;6.954;2024-02-26T14:29:46;6.00;99.90
60353;DHT22;46196;52.970;6.954;2024-02-26T14:32:12;6.00;99.90
60353;DHT22;46196;52.970;6.954;2024-02-26T14:34:37;5.90;99.90
60353;DHT22;46196;52.970;6.954;2024-02-26T14:37:03;5.90;99.90
60353;DHT22;46196;52.970;6.954;2024-02-26T14:39:31;5.90;99.90
60353;DHT22;46196;52.970;6.954;2024-02-26T14:41:57;6.00;99.90
60353;DHT22;46196;52.970;6.954;2024-02-26T14:44:23;5.90;99.90
60353;DHT22;46196;52.970;6.954;2024-02-26T14:46:49;5.90;99.90
60353;DHT22;46196;52.970;6.954;2024-02-26T14:49:15;5.90;99.90
60353;DHT22;46196;52.970;6.954;2024-02-26T14:51:41;5.90;99.90
60353;DHT22;46196;52.970;6.954;2024-02-26T14:54:07;5.90;99.90
60353;DHT22;46196;52.970;6.954;2024-02-26T14:56:33;6.10;99.90
60353;DHT22;46196;52.970;6.954;2024-02-26T14:58:59;5.90;99.90
60353;DHT22;46196;52.970;6.954;2024-02-26T15:01:25;5.90;99.90
60353;DHT22;46196;52.970;6.954;2024-02-26T15:03:50;5.90;99.90
60353;DHT22;46196;52.970;6.954;2024-02-26T15:06:16;6.00;99.90
60353;DHT22;46196;52.970;6.954;2024-02-26T15:08:42;6.00;99.90
60353;DHT22;46196;52.970;6.954;2024-02-26T15:11:07;6.00;99.90
60353;DHT22;46196;52.970;6.954;2024-02-26T15:13:34;6.00;99.90
60353;DHT22;46196;52.970;6.954;2024-02-26T15:15:59;6.00;99.90
60353;DHT22;46196;52.970;6.954;2024-02-26T15:18:25;6.00;99.90
60353;DHT22;46196;52.970;6.954;2024-02-26T15:20:51;5.90;99.90
60353;DHT22;46196;52.970;6.954;2024-02-26T15:23:17;5.90;99.90
60353;DHT22;46196;52.970;6.954;2024-02-26T15:25:43;5.90;99.90
60353;DHT22;46196;52.970;6.954;2024-02-26T15:28:09;5.90;99.90
60353;DHT22;46196;52.970;6.954;2024-02-26T15:30:40;5.90;99.90
60353;DHT22;46196;52.970;6.954;2024-02-26T15:33:06;5.90;99.90
60353;DHT22;46196;52.970;6.954;2024-02-26T15:35:32;6.00;99.90
60353;DHT22;46196;52.970;6.954;2024-02-26T15:37:58;5.90;99.90
60353;DHT22;46196;52.970;6.954;2024-02-26T15:40:24;5.90;99.90
60353;DHT22;46196;52.970;6.954;2024-02-26T15:42:50;5.90;99.90
60353;DHT22;46196;52.970;6.954;2024-02-26T15:45:16;5.90;99.90